createdAt,value
2016-12-17T00:00:06.433Z,1028.73
2016-12-17T00:00:16.425Z,1028.7
2016-12-17T00:00:26.415Z,1028.74
2016-12-17T00:00:36.410Z,1028.76
2016-12-17T00:00:46.406Z,1028.71
2016-12-17T00:00:56.395Z,1028.79
2016-12-17T00:01:06.392Z,1028.75
2016-12-17T00:01:16.386Z,1028.75
2016-12-17T00:01:26.377Z,1028.77
2016-12-17T00:01:36.375Z,1028.74
2016-12-17T00:01:46.362Z,1028.76
2016-12-17T00:01:56.358Z,1028.74
2016-12-17T00:02:06.354Z,1028.73
2016-12-17T00:02:16.343Z,1028.76
2016-12-17T00:02:26.338Z,1028.76
2016-12-17T00:02:36.332Z,1028.8
2016-12-17T00:02:46.324Z,1028.79
2016-12-17T00:02:56.320Z,1028.77
2016-12-17T00:03:06.308Z,1028.81
2016-12-17T00:03:16.304Z,1028.82
2016-12-17T00:03:26.300Z,1028.77
2016-12-17T00:03:36.288Z,1028.78
2016-12-17T00:03:46.283Z,1028.84
2016-12-17T00:03:56.276Z,1028.77
2016-12-17T00:04:06.270Z,1028.83
2016-12-17T00:04:16.267Z,1028.82
2016-12-17T00:04:26.258Z,1028.87
2016-12-17T00:04:36.249Z,1028.84
2016-12-17T00:04:46.246Z,1028.86
2016-12-17T00:04:56.239Z,1028.88
2016-12-17T00:05:06.231Z,1028.88
2016-12-17T00:05:16.222Z,1028.88
2016-12-17T00:05:26.216Z,1028.86
2016-12-17T00:05:36.210Z,1028.8
2016-12-17T00:05:46.201Z,1028.87
2016-12-17T00:05:56.196Z,1028.8
2016-12-17T00:06:06.192Z,1028.84
2016-12-17T00:06:16.186Z,1028.83
2016-12-17T00:06:26.176Z,1028.85
2016-12-17T00:06:36.171Z,1028.83
2016-12-17T00:06:46.165Z,1028.8
2016-12-17T00:06:56.158Z,1028.88
2016-12-17T00:07:06.152Z,1028.85
2016-12-17T00:07:16.141Z,1028.84
2016-12-17T00:07:26.136Z,1028.84
2016-12-17T00:07:36.128Z,1028.86
2016-12-17T00:07:46.124Z,1028.88
2016-12-17T00:07:56.118Z,1028.87
2016-12-17T00:08:06.110Z,1028.81
2016-12-17T00:08:16.102Z,1028.79
2016-12-17T00:08:26.095Z,1028.84
2016-12-17T00:08:36.092Z,1028.83
2016-12-17T00:08:46.083Z,1028.82
2016-12-17T00:08:56.076Z,1028.77
2016-12-17T00:09:06.068Z,1028.84
2016-12-17T00:09:16.064Z,1028.79
2016-12-17T00:09:26.056Z,1028.77
2016-12-17T00:09:36.049Z,1028.81
2016-12-17T00:09:46.045Z,1028.79
2016-12-17T00:09:56.039Z,1028.81
2016-12-17T00:10:06.032Z,1028.79
2016-12-17T00:10:16.019Z,1028.76
2016-12-17T00:10:26.015Z,1028.83
2016-12-17T00:10:36.012Z,1028.77
2016-12-17T00:10:46.004Z,1028.76
2016-12-17T00:10:55.997Z,1028.82
2016-12-17T00:11:05.989Z,1028.77
2016-12-17T00:11:15.979Z,1028.78
2016-12-17T00:11:25.976Z,1028.78
2016-12-17T00:11:35.967Z,1028.81
2016-12-17T00:11:45.960Z,1028.79
2016-12-17T00:11:55.957Z,1028.82
2016-12-17T00:12:05.949Z,1028.81
2016-12-17T00:12:15.941Z,1028.82
2016-12-17T00:12:25.959Z,1028.85
2016-12-17T00:12:35.935Z,1028.79
2016-12-17T00:12:45.924Z,1028.85
2016-12-17T00:12:55.915Z,1028.8
2016-12-17T00:13:05.909Z,1028.85
2016-12-17T00:13:15.904Z,1028.79
2016-12-17T00:13:25.893Z,1028.82
2016-12-17T00:13:35.886Z,1028.78
2016-12-17T00:13:45.880Z,1028.84
2016-12-17T00:13:55.874Z,1028.81
2016-12-17T00:14:05.866Z,1028.82
2016-12-17T00:14:15.890Z,1028.82
2016-12-17T00:14:25.850Z,1028.78
2016-12-17T00:14:35.851Z,1028.79
2016-12-17T00:14:45.842Z,1028.79
2016-12-17T00:14:55.837Z,1028.75
2016-12-17T00:15:05.830Z,1028.82
2016-12-17T00:15:16.158Z,1028.75
2016-12-17T00:15:25.816Z,1028.76
2016-12-17T00:15:35.809Z,1028.79
2016-12-17T00:15:46.137Z,1028.8
2016-12-17T00:15:55.796Z,1028.8
2016-12-17T00:16:05.791Z,1028.8
2016-12-17T00:16:15.785Z,1028.87
2016-12-17T00:16:25.774Z,1028.81
2016-12-17T00:16:35.798Z,1028.81
2016-12-17T00:16:45.762Z,1028.87
2016-12-17T00:16:55.757Z,1028.84
2016-12-17T00:17:05.744Z,1028.82
2016-12-17T00:17:15.745Z,1028.83
2016-12-17T00:17:25.732Z,1028.82
2016-12-17T00:17:35.728Z,1028.83
2016-12-17T00:17:45.719Z,1028.89
2016-12-17T00:17:55.743Z,1028.86
2016-12-17T00:18:05.710Z,1028.85
2016-12-17T00:18:15.697Z,1028.88
2016-12-17T00:18:25.695Z,1028.86
2016-12-17T00:18:35.690Z,1028.88
2016-12-17T00:18:45.680Z,1028.92
2016-12-17T00:18:55.676Z,1028.89
2016-12-17T00:19:05.669Z,1028.88
2016-12-17T00:19:15.664Z,1028.89
2016-12-17T00:19:25.665Z,1028.91
2016-12-17T00:19:35.647Z,1028.93
2016-12-17T00:19:45.642Z,1028.87
2016-12-17T00:19:55.632Z,1028.92
2016-12-17T00:20:05.625Z,1028.85
2016-12-17T00:20:15.623Z,1028.91
2016-12-17T00:20:25.616Z,1028.87
2016-12-17T00:20:35.608Z,1028.91
2016-12-17T00:20:45.599Z,1028.88
2016-12-17T00:20:55.618Z,1028.89
2016-12-17T00:21:05.588Z,1028.89
2016-12-17T00:21:15.581Z,1028.93
2016-12-17T00:21:25.568Z,1028.88
2016-12-17T00:21:35.570Z,1028.83
2016-12-17T00:21:45.556Z,1028.88
2016-12-17T00:21:55.552Z,1028.84
2016-12-17T00:22:05.547Z,1028.94
2016-12-17T00:22:15.539Z,1028.94
2016-12-17T00:22:25.532Z,1028.88
2016-12-17T00:22:35.528Z,1028.89
2016-12-17T00:22:45.519Z,1028.9
2016-12-17T00:22:55.517Z,1028.95
2016-12-17T00:23:05.505Z,1028.87
2016-12-17T00:23:15.500Z,1028.87
2016-12-17T00:23:25.493Z,1028.87
2016-12-17T00:23:35.485Z,1028.88
2016-12-17T00:23:45.480Z,1028.89
2016-12-17T00:23:55.476Z,1028.9
2016-12-17T00:24:05.470Z,1028.86
2016-12-17T00:24:15.459Z,1028.85
2016-12-17T00:24:25.453Z,1028.85
2016-12-17T00:24:35.442Z,1028.87
2016-12-17T00:24:45.440Z,1028.89
2016-12-17T00:24:55.433Z,1028.88
2016-12-17T00:25:05.426Z,1028.85
2016-12-17T00:25:15.419Z,1028.91
2016-12-17T00:25:25.414Z,1028.9
2016-12-17T00:25:35.407Z,1028.88
2016-12-17T00:25:45.396Z,1028.84
2016-12-17T00:25:55.392Z,1028.91
2016-12-17T00:26:05.387Z,1028.86
2016-12-17T00:26:15.381Z,1028.84
2016-12-17T00:26:25.372Z,1028.86
2016-12-17T00:26:35.365Z,1028.89
2016-12-17T00:26:45.356Z,1028.88
2016-12-17T00:26:55.355Z,1028.86
2016-12-17T00:27:05.346Z,1028.87
2016-12-17T00:27:15.338Z,1028.86
2016-12-17T00:27:25.361Z,1028.92
2016-12-17T00:27:35.326Z,1028.9
2016-12-17T00:27:45.318Z,1028.89
2016-12-17T00:27:55.315Z,1028.87
2016-12-17T00:28:05.303Z,1028.9
2016-12-17T00:28:15.297Z,1028.85
2016-12-17T00:28:25.291Z,1028.91
2016-12-17T00:28:35.284Z,1028.87
2016-12-17T00:28:45.281Z,1028.93
2016-12-17T00:28:55.269Z,1028.93
2016-12-17T00:29:05.263Z,1028.91
2016-12-17T00:29:15.260Z,1028.9
2016-12-17T00:29:25.253Z,1028.9
2016-12-17T00:29:35.246Z,1028.91
2016-12-17T00:29:45.234Z,1028.91
2016-12-17T00:29:55.231Z,1028.91
2016-12-17T00:30:05.222Z,1028.9
2016-12-17T00:30:15.218Z,1028.9
2016-12-17T00:30:25.234Z,1028.94
2016-12-17T00:30:35.206Z,1028.89
2016-12-17T00:30:45.197Z,1028.9
2016-12-17T00:30:55.192Z,1028.93
2016-12-17T00:31:05.188Z,1028.89
2016-12-17T00:31:15.177Z,1028.92
2016-12-17T00:31:25.172Z,1028.93
2016-12-17T00:31:35.164Z,1028.9
2016-12-17T00:31:45.188Z,1028.92
2016-12-17T00:31:55.148Z,1028.92
2016-12-17T00:32:05.143Z,1028.9
2016-12-17T00:32:15.136Z,1028.94
2016-12-17T00:32:25.134Z,1028.88
2016-12-17T00:32:35.122Z,1028.92
2016-12-17T00:32:45.120Z,1028.89
2016-12-17T00:32:55.109Z,1028.91
2016-12-17T00:33:05.108Z,1028.93
2016-12-17T00:33:15.105Z,1028.91
2016-12-17T00:33:25.090Z,1028.89
2016-12-17T00:33:35.084Z,1028.89
2016-12-17T00:33:45.075Z,1028.87
2016-12-17T00:33:55.070Z,1028.9
2016-12-17T00:34:05.066Z,1028.88
2016-12-17T00:34:15.057Z,1028.85
2016-12-17T00:34:25.052Z,1028.89
2016-12-17T00:34:35.044Z,1028.88
2016-12-17T00:34:45.037Z,1028.88
2016-12-17T00:34:55.030Z,1028.88
2016-12-17T00:35:05.020Z,1028.91
2016-12-17T00:35:15.015Z,1028.87
2016-12-17T00:35:25.011Z,1028.9
2016-12-17T00:35:35.007Z,1028.89
2016-12-17T00:35:44.995Z,1028.88
2016-12-17T00:35:54.989Z,1028.91
2016-12-17T00:36:04.981Z,1028.93
2016-12-17T00:36:14.975Z,1028.86
2016-12-17T00:36:24.970Z,1028.9
2016-12-17T00:36:34.959Z,1028.91
2016-12-17T00:36:44.956Z,1028.93
2016-12-17T00:36:54.949Z,1028.93
2016-12-17T00:37:04.943Z,1028.93
2016-12-17T00:37:14.939Z,1028.94
2016-12-17T00:37:25.264Z,1028.96
2016-12-17T00:37:34.924Z,1028.94
2016-12-17T00:37:44.916Z,1028.94
2016-12-17T00:37:54.913Z,1028.99
2016-12-17T00:38:04.905Z,1028.95
2016-12-17T00:38:14.895Z,1028.9
2016-12-17T00:38:24.890Z,1028.96
2016-12-17T00:38:34.884Z,1028.95
2016-12-17T00:38:44.875Z,1028.93
2016-12-17T00:38:54.873Z,1028.93
2016-12-17T00:39:04.862Z,1028.93
2016-12-17T00:39:14.857Z,1028.97
2016-12-17T00:39:24.850Z,1028.91
2016-12-17T00:39:34.844Z,1028.95
2016-12-17T00:39:44.839Z,1028.94
2016-12-17T00:39:54.830Z,1028.94
2016-12-17T00:40:04.824Z,1028.92
2016-12-17T00:40:14.816Z,1028.91
2016-12-17T00:40:24.812Z,1028.89
2016-12-17T00:40:34.810Z,1028.91
2016-12-17T00:40:44.797Z,1028.94
2016-12-17T00:40:54.792Z,1028.97
2016-12-17T00:41:04.781Z,1028.95
2016-12-17T00:41:14.777Z,1028.94
2016-12-17T00:41:24.769Z,1028.92
2016-12-17T00:41:34.774Z,1028.91
2016-12-17T00:41:44.753Z,1028.91
2016-12-17T00:41:54.752Z,1028.93
2016-12-17T00:42:04.743Z,1028.93
2016-12-17T00:42:14.739Z,1028.92
2016-12-17T00:42:24.760Z,1028.95
2016-12-17T00:42:34.721Z,1028.98
2016-12-17T00:42:44.714Z,1028.97
2016-12-17T00:42:54.712Z,1029.01
2016-12-17T00:43:04.705Z,1028.97
2016-12-17T00:43:15.029Z,1028.98
2016-12-17T00:43:24.713Z,1029
2016-12-17T00:43:34.681Z,1029.04
2016-12-17T00:43:44.674Z,1029.02
2016-12-17T00:43:54.669Z,1029.04
2016-12-17T00:44:04.662Z,1028.99
2016-12-17T00:44:14.658Z,1029.04
2016-12-17T00:44:24.649Z,1029.02
2016-12-17T00:44:34.640Z,1029.02
2016-12-17T00:44:44.633Z,1029.04
2016-12-17T00:44:54.629Z,1029.04
2016-12-17T00:45:04.624Z,1029.09
2016-12-17T00:45:14.617Z,1029.07
2016-12-17T00:45:24.607Z,1029.03
2016-12-17T00:45:34.605Z,1029.12
2016-12-17T00:45:44.598Z,1029.08
2016-12-17T00:45:54.588Z,1029.1
2016-12-17T00:46:04.584Z,1029.05
2016-12-17T00:46:14.574Z,1029.1
2016-12-17T00:46:24.570Z,1029.1
2016-12-17T00:46:34.560Z,1029.1
2016-12-17T00:46:44.556Z,1029.1
2016-12-17T00:46:54.550Z,1029.1
2016-12-17T00:47:04.545Z,1029.11
2016-12-17T00:47:14.561Z,1029.11
2016-12-17T00:47:24.528Z,1029.08
2016-12-17T00:47:34.521Z,1029.1
2016-12-17T00:47:44.516Z,1029.11
2016-12-17T00:47:54.508Z,1029.12
2016-12-17T00:48:04.502Z,1029.12
2016-12-17T00:48:14.496Z,1029.08
2016-12-17T00:48:24.521Z,1029.12
2016-12-17T00:48:34.482Z,1029.12
2016-12-17T00:48:44.478Z,1029.12
2016-12-17T00:48:54.466Z,1029.09
2016-12-17T00:49:04.465Z,1029.11
2016-12-17T00:49:14.459Z,1029.06
2016-12-17T00:49:24.450Z,1029.04
2016-12-17T00:49:34.442Z,1029.07
2016-12-17T00:49:44.436Z,1029.02
2016-12-17T00:49:54.428Z,1029.09
2016-12-17T00:50:04.425Z,1029.1
2016-12-17T00:50:14.414Z,1029.04
2016-12-17T00:50:24.411Z,1029.04
2016-12-17T00:50:34.405Z,1029.09
2016-12-17T00:50:44.393Z,1029.09
2016-12-17T00:50:54.387Z,1029.07
2016-12-17T00:51:04.379Z,1029.13
2016-12-17T00:51:14.373Z,1029.1
2016-12-17T00:51:24.370Z,1029.12
2016-12-17T00:51:34.361Z,1029.11
2016-12-17T00:51:44.355Z,1029.11
2016-12-17T00:51:54.349Z,1029.12
2016-12-17T00:52:04.341Z,1029.1
2016-12-17T00:52:14.339Z,1029.12
2016-12-17T00:52:24.328Z,1029.09
2016-12-17T00:52:34.325Z,1029.12
2016-12-17T00:52:44.312Z,1029.14
2016-12-17T00:52:54.306Z,1029.17
2016-12-17T00:53:04.303Z,1029.14
2016-12-17T00:53:14.297Z,1029.15
2016-12-17T00:53:24.288Z,1029.13
2016-12-17T00:53:34.282Z,1029.09
2016-12-17T00:53:44.272Z,1029.1
2016-12-17T00:53:54.266Z,1029.11
2016-12-17T00:54:04.261Z,1029.1
2016-12-17T00:54:14.255Z,1029.08
2016-12-17T00:54:24.248Z,1029.07
2016-12-17T00:54:34.242Z,1029.07
2016-12-17T00:54:44.253Z,1029.06
2016-12-17T00:54:54.226Z,1029.08
2016-12-17T00:55:04.221Z,1029.04
2016-12-17T00:55:14.221Z,1029.03
2016-12-17T00:55:24.233Z,1029.04
2016-12-17T00:55:34.203Z,1029.03
2016-12-17T00:55:44.197Z,1029.08
2016-12-17T00:55:54.187Z,1028.97
2016-12-17T00:56:04.183Z,1028.98
2016-12-17T00:56:14.173Z,1029
2016-12-17T00:56:24.168Z,1028.98
2016-12-17T00:56:34.165Z,1028.95
2016-12-17T00:56:44.181Z,1029.01
2016-12-17T00:56:54.144Z,1028.94
2016-12-17T00:57:04.139Z,1029.02
2016-12-17T00:57:14.137Z,1028.99
2016-12-17T00:57:24.154Z,1028.98
2016-12-17T00:57:34.457Z,1028.99
2016-12-17T00:57:44.114Z,1029
2016-12-17T00:57:54.105Z,1028.99
2016-12-17T00:58:04.103Z,1029
2016-12-17T00:58:14.095Z,1029.07
2016-12-17T00:58:24.088Z,1029.04
2016-12-17T00:58:34.085Z,1029.02
2016-12-17T00:58:44.073Z,1029
2016-12-17T00:58:54.071Z,1029.04
2016-12-17T00:59:04.056Z,1029.08
2016-12-17T00:59:14.054Z,1029.05
2016-12-17T00:59:24.049Z,1029.01
2016-12-17T00:59:34.041Z,1029.04
2016-12-17T00:59:44.036Z,1029
2016-12-17T00:59:54.027Z,1029.04
2016-12-17T01:00:04.022Z,1029
2016-12-17T01:00:14.013Z,1029.05
2016-12-17T01:00:24.006Z,1028.98
2016-12-17T01:00:34.003Z,1029.05
2016-12-17T01:00:43.995Z,1029.03
2016-12-17T01:00:53.994Z,1028.99
2016-12-17T01:01:03.984Z,1028.98
2016-12-17T01:01:13.974Z,1029.08
2016-12-17T01:01:23.966Z,1029.05
2016-12-17T01:01:33.960Z,1028.99
2016-12-17T01:01:43.955Z,1029.02
2016-12-17T01:01:53.949Z,1029.04
2016-12-17T01:02:03.949Z,1028.98
2016-12-17T01:02:13.936Z,1029.04
2016-12-17T01:02:23.926Z,1029.02
2016-12-17T01:02:33.923Z,1029.05
2016-12-17T01:02:43.917Z,1029.01
2016-12-17T01:02:53.906Z,1029.05
2016-12-17T01:03:03.900Z,1029.04
2016-12-17T01:03:14.234Z,1029.07
2016-12-17T01:03:23.887Z,1029.05
2016-12-17T01:03:33.880Z,1029.05
2016-12-17T01:03:43.877Z,1029.05
2016-12-17T01:03:53.869Z,1029.11
2016-12-17T01:04:03.862Z,1029.06
2016-12-17T01:04:13.852Z,1029.1
2016-12-17T01:04:23.843Z,1029.07
2016-12-17T01:04:33.839Z,1029.08
2016-12-17T01:04:43.835Z,1029.09
2016-12-17T01:04:53.826Z,1029.08
2016-12-17T01:05:03.822Z,1029.08
2016-12-17T01:05:13.811Z,1029.07
2016-12-17T01:05:23.806Z,1029.09
2016-12-17T01:05:33.799Z,1029.05
2016-12-17T01:05:43.791Z,1029.05
2016-12-17T01:05:53.791Z,1029.1
2016-12-17T01:06:03.782Z,1029.07
2016-12-17T01:06:13.772Z,1029.02
2016-12-17T01:06:23.769Z,1029.02
2016-12-17T01:06:33.762Z,1029.04
2016-12-17T01:06:43.754Z,1029
2016-12-17T01:06:53.784Z,1029.02
2016-12-17T01:07:03.740Z,1029.05
2016-12-17T01:07:13.730Z,1029.03
2016-12-17T01:07:23.729Z,1029.03
2016-12-17T01:07:33.719Z,1029.03
2016-12-17T01:07:43.713Z,1029.01
2016-12-17T01:07:53.713Z,1029.07
2016-12-17T01:08:03.703Z,1029.05
2016-12-17T01:08:13.695Z,1029.02
2016-12-17T01:08:23.685Z,1029.07
2016-12-17T01:08:33.679Z,1029.03
2016-12-17T01:08:43.674Z,1029.03
2016-12-17T01:08:53.669Z,1029.1
2016-12-17T01:09:03.663Z,1029.07
2016-12-17T01:09:13.654Z,1029.08
2016-12-17T01:09:23.646Z,1029.09
2016-12-17T01:09:33.641Z,1029.06
2016-12-17T01:09:43.633Z,1029.09
2016-12-17T01:09:53.627Z,1029.08
2016-12-17T01:10:03.620Z,1029.06
2016-12-17T01:10:13.611Z,1029.13
2016-12-17T01:10:23.608Z,1029.08
2016-12-17T01:10:33.600Z,1029.09
2016-12-17T01:10:43.593Z,1029.06
2016-12-17T01:10:53.588Z,1029.08
2016-12-17T01:11:03.582Z,1029.09
2016-12-17T01:11:13.572Z,1029.08
2016-12-17T01:11:23.567Z,1029.05
2016-12-17T01:11:33.563Z,1029.06
2016-12-17T01:11:43.578Z,1029.07
2016-12-17T01:11:53.550Z,1029.08
2016-12-17T01:12:03.539Z,1029.13
2016-12-17T01:12:13.537Z,1029.06
2016-12-17T01:12:23.551Z,1029.08
2016-12-17T01:12:33.522Z,1029.09
2016-12-17T01:12:43.515Z,1029.04
2016-12-17T01:12:53.507Z,1029.13
2016-12-17T01:13:03.517Z,1029.06
2016-12-17T01:13:13.497Z,1029.11
2016-12-17T01:13:23.485Z,1029.06
2016-12-17T01:13:33.483Z,1029.15
2016-12-17T01:13:43.472Z,1029.1
2016-12-17T01:13:53.466Z,1029.1
2016-12-17T01:14:03.462Z,1029.08
2016-12-17T01:14:13.452Z,1029.1
2016-12-17T01:14:23.448Z,1029.08
2016-12-17T01:14:33.442Z,1029.12
2016-12-17T01:14:43.433Z,1029.08
2016-12-17T01:14:53.428Z,1029.12
2016-12-17T01:15:03.420Z,1029.13
2016-12-17T01:15:13.413Z,1029.15
2016-12-17T01:15:23.410Z,1029.09
2016-12-17T01:15:33.400Z,1029.11
2016-12-17T01:15:43.400Z,1029.12
2016-12-17T01:15:53.387Z,1029.15
2016-12-17T01:16:03.379Z,1029.15
2016-12-17T01:16:13.375Z,1029.12
2016-12-17T01:16:23.367Z,1029.13
2016-12-17T01:16:33.358Z,1029.17
2016-12-17T01:16:43.359Z,1029.12
2016-12-17T01:16:53.344Z,1029.15
2016-12-17T01:17:03.342Z,1029.08
2016-12-17T01:17:13.335Z,1029.16
2016-12-17T01:17:23.326Z,1029.11
2016-12-17T01:17:33.321Z,1029.17
2016-12-17T01:17:43.317Z,1029.14
2016-12-17T01:17:53.302Z,1029.15
2016-12-17T01:18:03.296Z,1029.17
2016-12-17T01:18:13.294Z,1029.14
2016-12-17T01:18:23.289Z,1029.11
2016-12-17T01:18:33.282Z,1029.15
2016-12-17T01:18:43.274Z,1029.17
2016-12-17T01:18:53.265Z,1029.19
2016-12-17T01:19:03.259Z,1029.13
2016-12-17T01:19:13.253Z,1029.15
2016-12-17T01:19:23.249Z,1029.22
2016-12-17T01:19:33.239Z,1029.21
2016-12-17T01:19:43.238Z,1029.16
2016-12-17T01:19:53.227Z,1029.19
2016-12-17T01:20:03.216Z,1029.18
2016-12-17T01:20:13.214Z,1029.19
2016-12-17T01:20:23.206Z,1029.15
2016-12-17T01:20:33.197Z,1029.19
2016-12-17T01:20:43.194Z,1029.16
2016-12-17T01:20:53.187Z,1029.17
2016-12-17T01:21:03.181Z,1029.14
2016-12-17T01:21:13.171Z,1029.16
2016-12-17T01:21:23.174Z,1029.16
2016-12-17T01:21:33.161Z,1029.14
2016-12-17T01:21:43.154Z,1029.13
2016-12-17T01:21:53.145Z,1029.11
2016-12-17T01:22:03.141Z,1029.21
2016-12-17T01:22:13.132Z,1029.12
2016-12-17T01:22:23.125Z,1029.14
2016-12-17T01:22:33.121Z,1029.18
2016-12-17T01:22:43.113Z,1029.11
2016-12-17T01:22:53.109Z,1029.13
2016-12-17T01:23:03.094Z,1029.12
2016-12-17T01:23:13.096Z,1029.14
2016-12-17T01:23:23.084Z,1029.19
2016-12-17T01:23:33.080Z,1029.19
2016-12-17T01:23:43.072Z,1029.13
2016-12-17T01:23:53.068Z,1029.16
2016-12-17T01:24:03.058Z,1029.15
2016-12-17T01:24:13.052Z,1029.16
2016-12-17T01:24:23.047Z,1029.17
2016-12-17T01:24:33.040Z,1029.17
2016-12-17T01:24:43.034Z,1029.14
2016-12-17T01:24:53.028Z,1029.17
2016-12-17T01:25:03.021Z,1029.15
2016-12-17T01:25:13.009Z,1029.13
2016-12-17T01:25:23.003Z,1029.14
2016-12-17T01:25:33.001Z,1029.16
2016-12-17T01:25:43.019Z,1029.14
2016-12-17T01:25:52.986Z,1029.2
2016-12-17T01:26:02.979Z,1029.14
2016-12-17T01:26:12.972Z,1029.15
2016-12-17T01:26:22.965Z,1029.13
2016-12-17T01:26:32.961Z,1029.18
2016-12-17T01:26:42.951Z,1029.21
2016-12-17T01:26:52.943Z,1029.14
2016-12-17T01:27:02.968Z,1029.16
2016-12-17T01:27:12.930Z,1029.19
2016-12-17T01:27:22.929Z,1029.26
2016-12-17T01:27:32.919Z,1029.12
2016-12-17T01:27:42.919Z,1029.16
2016-12-17T01:27:52.908Z,1029.15
2016-12-17T01:28:02.899Z,1029.19
2016-12-17T01:28:12.892Z,1029.18
2016-12-17T01:28:22.886Z,1029.18
2016-12-17T01:28:32.876Z,1029.19
2016-12-17T01:28:42.874Z,1029.16
2016-12-17T01:28:52.867Z,1029.18
2016-12-17T01:29:02.858Z,1029.13
2016-12-17T01:29:12.851Z,1029.14
2016-12-17T01:29:22.847Z,1029.11
2016-12-17T01:29:32.840Z,1029.16
2016-12-17T01:29:42.830Z,1029.14
2016-12-17T01:29:52.825Z,1029.18
2016-12-17T01:30:02.819Z,1029.12
2016-12-17T01:30:12.812Z,1029.15
2016-12-17T01:30:22.801Z,1029.09
2016-12-17T01:30:32.799Z,1029.1
2016-12-17T01:30:42.792Z,1029.08
2016-12-17T01:30:52.784Z,1029.13
2016-12-17T01:31:02.776Z,1029.14
2016-12-17T01:31:12.771Z,1029.13
2016-12-17T01:31:22.764Z,1029.16
2016-12-17T01:31:32.757Z,1029.17
2016-12-17T01:31:42.777Z,1029.12
2016-12-17T01:31:52.746Z,1029.14
2016-12-17T01:32:02.736Z,1029.18
2016-12-17T01:32:12.731Z,1029.21
2016-12-17T01:32:22.722Z,1029.23
2016-12-17T01:32:32.715Z,1029.25
2016-12-17T01:32:42.710Z,1029.21
2016-12-17T01:32:52.702Z,1029.24
2016-12-17T01:33:02.699Z,1029.23
2016-12-17T01:33:12.689Z,1029.22
2016-12-17T01:33:22.687Z,1029.23
2016-12-17T01:33:32.679Z,1029.23
2016-12-17T01:33:42.671Z,1029.25
2016-12-17T01:33:52.664Z,1029.27
2016-12-17T01:34:02.656Z,1029.25
2016-12-17T01:34:12.648Z,1029.27
2016-12-17T01:34:22.647Z,1029.2
2016-12-17T01:34:32.640Z,1029.24
2016-12-17T01:34:42.630Z,1029.24
2016-12-17T01:34:52.620Z,1029.28
2016-12-17T01:35:02.621Z,1029.27
2016-12-17T01:35:12.614Z,1029.22
2016-12-17T01:35:22.603Z,1029.25
2016-12-17T01:35:32.596Z,1029.25
2016-12-17T01:35:42.594Z,1029.24
2016-12-17T01:35:52.584Z,1029.23
2016-12-17T01:36:02.576Z,1029.29
2016-12-17T01:36:12.571Z,1029.29
2016-12-17T01:36:22.567Z,1029.31
2016-12-17T01:36:32.560Z,1029.3
2016-12-17T01:36:42.555Z,1029.28
2016-12-17T01:36:52.547Z,1029.27
2016-12-17T01:37:02.539Z,1029.33
2016-12-17T01:37:12.531Z,1029.28
2016-12-17T01:37:22.527Z,1029.34
2016-12-17T01:37:32.519Z,1029.27
2016-12-17T01:37:42.510Z,1029.31
2016-12-17T01:37:52.502Z,1029.32
2016-12-17T01:38:02.497Z,1029.38
2016-12-17T01:38:12.493Z,1029.35
2016-12-17T01:38:22.486Z,1029.34
2016-12-17T01:38:32.477Z,1029.36
2016-12-17T01:38:42.471Z,1029.31
2016-12-17T01:38:52.459Z,1029.29
2016-12-17T01:39:02.460Z,1029.32
2016-12-17T01:39:12.452Z,1029.33
2016-12-17T01:39:22.448Z,1029.33
2016-12-17T01:39:32.440Z,1029.27
2016-12-17T01:39:42.432Z,1029.26
2016-12-17T01:39:52.426Z,1029.25
2016-12-17T01:40:02.420Z,1029.21
2016-12-17T01:40:12.407Z,1029.23
2016-12-17T01:40:22.404Z,1029.24
2016-12-17T01:40:32.398Z,1029.19
2016-12-17T01:40:42.392Z,1029.2
2016-12-17T01:40:52.387Z,1029.23
2016-12-17T01:41:02.377Z,1029.23
2016-12-17T01:41:12.370Z,1029.21
2016-12-17T01:41:22.365Z,1029.24
2016-12-17T01:41:32.360Z,1029.18
2016-12-17T01:41:42.349Z,1029.21
2016-12-17T01:41:52.345Z,1029.26
2016-12-17T01:42:02.336Z,1029.19
2016-12-17T01:42:12.331Z,1029.19
2016-12-17T01:42:22.328Z,1029.25
2016-12-17T01:42:32.323Z,1029.22
2016-12-17T01:42:42.313Z,1029.25
2016-12-17T01:42:52.307Z,1029.24
2016-12-17T01:43:02.299Z,1029.26
2016-12-17T01:43:12.298Z,1029.24
2016-12-17T01:43:22.285Z,1029.21
2016-12-17T01:43:32.276Z,1029.25
2016-12-17T01:43:42.274Z,1029.26
2016-12-17T01:43:52.264Z,1029.24
2016-12-17T01:44:02.262Z,1029.25
2016-12-17T01:44:12.251Z,1029.28
2016-12-17T01:44:22.244Z,1029.28
2016-12-17T01:44:32.238Z,1029.25
2016-12-17T01:44:42.235Z,1029.25
2016-12-17T01:44:52.225Z,1029.25
2016-12-17T01:45:02.219Z,1029.3
2016-12-17T01:45:12.212Z,1029.27
2016-12-17T01:45:22.203Z,1029.25
2016-12-17T01:45:32.200Z,1029.28
2016-12-17T01:45:42.193Z,1029.27
2016-12-17T01:45:52.183Z,1029.29
2016-12-17T01:46:02.205Z,1029.23
2016-12-17T01:46:12.171Z,1029.32
2016-12-17T01:46:22.164Z,1029.28
2016-12-17T01:46:32.161Z,1029.28
2016-12-17T01:46:42.156Z,1029.32
2016-12-17T01:46:52.144Z,1029.28
2016-12-17T01:47:02.141Z,1029.33
2016-12-17T01:47:12.131Z,1029.33
2016-12-17T01:47:22.124Z,1029.31
2016-12-17T01:47:32.117Z,1029.29
2016-12-17T01:47:42.111Z,1029.35
2016-12-17T01:47:52.107Z,1029.32
2016-12-17T01:48:02.098Z,1029.35
2016-12-17T01:48:12.090Z,1029.35
2016-12-17T01:48:22.084Z,1029.33
2016-12-17T01:48:32.076Z,1029.35
2016-12-17T01:48:42.071Z,1029.31
2016-12-17T01:48:52.065Z,1029.36
2016-12-17T01:49:02.059Z,1029.37
2016-12-17T01:49:12.051Z,1029.38
2016-12-17T01:49:22.043Z,1029.34
2016-12-17T01:49:32.038Z,1029.33
2016-12-17T01:49:42.060Z,1029.42
2016-12-17T01:49:52.023Z,1029.33
2016-12-17T01:50:02.020Z,1029.35
2016-12-17T01:50:12.007Z,1029.37
2016-12-17T01:50:22.007Z,1029.32
2016-12-17T01:50:31.997Z,1029.37
2016-12-17T01:50:41.991Z,1029.4
2016-12-17T01:50:51.983Z,1029.4
2016-12-17T01:51:01.980Z,1029.34
2016-12-17T01:51:11.973Z,1029.38
2016-12-17T01:51:21.964Z,1029.35
2016-12-17T01:51:31.957Z,1029.38
2016-12-17T01:51:41.951Z,1029.38
2016-12-17T01:51:51.944Z,1029.33
2016-12-17T01:52:01.941Z,1029.3
2016-12-17T01:52:11.931Z,1029.33
2016-12-17T01:52:21.921Z,1029.32
2016-12-17T01:52:31.916Z,1029.31
2016-12-17T01:52:41.937Z,1029.35
2016-12-17T01:52:51.900Z,1029.34
2016-12-17T01:53:02.230Z,1029.33
2016-12-17T01:53:11.894Z,1029.32
2016-12-17T01:53:21.884Z,1029.34
2016-12-17T01:53:31.878Z,1029.37
2016-12-17T01:53:41.874Z,1029.33
2016-12-17T01:53:51.861Z,1029.29
2016-12-17T01:54:01.859Z,1029.3
2016-12-17T01:54:11.850Z,1029.33
2016-12-17T01:54:21.845Z,1029.31
2016-12-17T01:54:31.837Z,1029.28
2016-12-17T01:54:41.827Z,1029.3
2016-12-17T01:54:51.826Z,1029.29
2016-12-17T01:55:01.842Z,1029.32
2016-12-17T01:55:11.809Z,1029.37
2016-12-17T01:55:21.807Z,1029.37
2016-12-17T01:55:31.797Z,1029.37
2016-12-17T01:55:41.792Z,1029.32
2016-12-17T01:55:51.785Z,1029.37
2016-12-17T01:56:01.775Z,1029.36
2016-12-17T01:56:11.772Z,1029.39
2016-12-17T01:56:21.766Z,1029.36
2016-12-17T01:56:31.756Z,1029.32
2016-12-17T01:56:41.753Z,1029.36
2016-12-17T01:56:51.748Z,1029.35
2016-12-17T01:57:01.738Z,1029.34
2016-12-17T01:57:11.812Z,1029.34
2016-12-17T01:57:21.723Z,1029.31
2016-12-17T01:57:31.718Z,1029.32
2016-12-17T01:57:41.711Z,1029.35
2016-12-17T01:57:51.705Z,1029.36
2016-12-17T01:58:01.695Z,1029.34
2016-12-17T01:58:11.789Z,1029.31
2016-12-17T01:58:21.686Z,1029.35
2016-12-17T01:58:31.679Z,1029.39
2016-12-17T01:58:41.698Z,1029.36
2016-12-17T01:58:51.669Z,1029.36
2016-12-17T01:59:01.657Z,1029.29
2016-12-17T01:59:11.650Z,1029.31
2016-12-17T01:59:21.644Z,1029.39
2016-12-17T01:59:31.667Z,1029.36
2016-12-17T01:59:41.633Z,1029.36
2016-12-17T01:59:51.626Z,1029.37
2016-12-17T02:00:01.616Z,1029.4
2016-12-17T02:00:11.612Z,1029.36
2016-12-17T02:00:21.604Z,1029.42
2016-12-17T02:00:31.599Z,1029.4
2016-12-17T02:00:41.590Z,1029.42
2016-12-17T02:00:51.587Z,1029.45
2016-12-17T02:01:01.580Z,1029.42
2016-12-17T02:01:11.572Z,1029.44
2016-12-17T02:01:21.566Z,1029.41